Details From PAJN - Juneau Intl
To CYXY - Whitehorse Intl
Flight Number -
Tags Generated
Created
Modified
Stats Distance 142 nm / 263 km
Max Altitude 0 ft / 0 m
Waypoints 3
Social Downloads 4
Likes 0
Share VATSIM

Download

Looking for another format? Having issues loading an existing format? Contact us
Advertisement - Login to hide

Notes

Generated

Route

PAJN ZXY CYXY

ID Type Via Altitude Latitude Longitude Leg Dist Tot Dist Heading (true) Name
O PAJN APT - 0 ft / 0 m 58.35793˚ -134.59756˚ - 0 nm - -
ZXY NDB - 0 ft / 0 m 60.63639˚ -135.00889˚ 137 nm 137 nm 355° / 355° KLONDIKE NDB
O CYXY APT - 0 ft / 0 m 60.71102˚ -135.07253˚ 4 nm 142 nm 337° / 337° WHITEHORSE INTL

Altitude Profile

Advertisement - Login to hide

PAJN

Details ICAO PAJN (JNU)
Name Juneau Intl
Region USA (Alaska)
Timezone America/Juneau (UTC-9.0)
Stats Elevation 21 ft / 6 m (AMSL)
Location 58.354964° -134.576278°
Runways 1
Magnetic Variation 19.150° E

METAR

PAJN 120053Z 11012KT 6SM RA BR FEW002 BKN033 OVC041 06/06 A2999

Decode

TAF

TAF PAJN 112326Z 1200/1224 11010KT 6SM -RA BR FEW015 BKN035 OVC050 FM120600 10007KT 4SM -RA BR SCT015 BKN040 OVC060 FM122000 10007KT P6SM VCSH SCT015 BKN040 OVC060

Decode

Departure Runways

ID Width Length Bearing (true) Bearing (mag) Surface Threshold Offset Overrun Length
08 150 ft / 46 m 8,430 ft / 2,570 m 104.87° 85.72° Asphalt 0 ft / 0 m 450 ft / 137 m
26 150 ft / 46 m 8,430 ft / 2,570 m 284.90° 265.75° Asphalt 0 ft / 0 m 225 ft / 69 m

CYXY

Details ICAO CYXY (YXY)
Name WHITEHORSE INTL
Region Canada
Timezone America/Whitehorse (UTC-8.0)
Stats Elevation 2,317 ft / 706 m (AMSL)
Location 60.712191° -135.067108°
Runways 3
Magnetic Variation 19.686° E

METAR

CYXY 120100Z 18016G22KT 15SM FEW008 FEW150 SCT220 02/M03 A2980 RMK CF1AC1CI1 SLP127

Decode

TAF

TAF TAF CYXY 112340Z 1200/1212 17010KT P6SM FEW006 FEW150 FEW220 FM120900 18008KT P6SM SCT015 BKN100 TEMPO 1209/1212 3SM -SN SCT007 BKN015 OVC040 RMK NXT FCST BY 120600Z

Decode

Destination Runways

ID Width Length Bearing (true) Bearing (mag) Surface Threshold Offset Overrun Length
01 75 ft / 23 m 2,070 ft / 631 m 31.99° 12.30° Asphalt 335 ft / 102 m 0 ft / 0 m
13L 80 ft / 24 m 3,922 ft / 1,195 m 158.54° 138.85° Asphalt 0 ft / 0 m 0 ft / 0 m
13R 150 ft / 46 m 9,469 ft / 2,886 m 159.27° 139.58° Asphalt 850 ft / 259 m 100 ft / 30 m
19 75 ft / 23 m 2,070 ft / 631 m 212.00° 192.31° Asphalt 0 ft / 0 m 0 ft / 0 m
31L 150 ft / 46 m 9,469 ft / 2,886 m 339.29° 319.60° Asphalt 1,400 ft / 427 m 100 ft / 30 m
31R 80 ft / 24 m 3,922 ft / 1,195 m 338.54° 318.85° Asphalt 0 ft / 0 m 0 ft / 0 m

Popular Alternatives